createdAt,value
2019-05-18T00:00:10.610Z,76.21
2019-05-18T00:02:39.192Z,74.93
2019-05-18T00:05:08.364Z,75.64
2019-05-18T00:07:36.956Z,75.97
2019-05-18T00:10:08.554Z,76.10
2019-05-18T00:12:37.114Z,76.66
2019-05-18T00:15:10.099Z,77.38
2019-05-18T00:17:38.664Z,77.36
2019-05-18T00:20:10.350Z,74.95
2019-05-18T00:22:38.862Z,74.67
2019-05-18T00:25:07.494Z,73.86
2019-05-18T00:27:36.040Z,74.02
2019-05-18T00:30:07.601Z,73.71
2019-05-18T00:32:36.088Z,73.30
2019-05-18T00:35:07.266Z,73.04
2019-05-18T00:37:35.819Z,72.68
2019-05-18T00:40:06.457Z,72.48
2019-05-18T00:42:35.012Z,72.82
2019-05-18T00:45:04.647Z,73.36
2019-05-18T00:47:41.548Z,72.92
2019-05-18T00:50:03.632Z,72.38
2019-05-18T00:52:32.118Z,71.92
2019-05-18T00:55:00.610Z,71.81
2019-05-18T00:57:29.158Z,71.90
2019-05-18T00:59:57.647Z,72.49
2019-05-18T01:02:26.129Z,71.96
2019-05-18T01:04:54.623Z,72.02
2019-05-18T01:07:23.134Z,71.55
2019-05-18T01:09:51.677Z,71.76
2019-05-18T01:12:20.149Z,71.22
2019-05-18T01:14:48.705Z,71.02
2019-05-18T01:17:17.284Z,71.26
2019-05-18T01:19:45.780Z,72.78
2019-05-18T01:22:14.284Z,73.23
2019-05-18T01:24:42.833Z,74.26
2019-05-18T01:27:11.347Z,75.98
2019-05-18T01:29:39.820Z,76.30
2019-05-18T01:32:08.309Z,74.35
2019-05-18T01:34:36.818Z,73.45
2019-05-18T01:37:05.319Z,72.67
2019-05-18T01:39:33.863Z,71.76
2019-05-18T01:42:02.385Z,71.51
2019-05-18T01:44:30.854Z,70.82
2019-05-18T01:46:59.347Z,71.08
2019-05-18T01:49:27.859Z,71.97
2019-05-18T01:51:56.363Z,71.37
2019-05-18T01:54:24.825Z,70.81
2019-05-18T01:56:53.311Z,70.28
2019-05-18T01:59:21.823Z,70.16
2019-05-18T02:01:50.312Z,70.84
2019-05-18T02:04:18.812Z,71.09
2019-05-18T02:06:47.302Z,71.69
2019-05-18T02:09:15.844Z,75.52
2019-05-18T02:11:44.327Z,78.23
2019-05-18T02:14:12.839Z,80.17
2019-05-18T02:16:41.325Z,76.88
2019-05-18T02:19:09.830Z,74.97
2019-05-18T02:21:38.347Z,73.62
2019-05-18T02:24:06.880Z,73.14
2019-05-18T02:26:35.512Z,72.54
2019-05-18T02:29:04.904Z,72.21
2019-05-18T02:31:33.416Z,71.75
2019-05-18T02:34:01.944Z,72.66
2019-05-18T02:36:30.441Z,73.75
2019-05-18T02:38:58.924Z,72.95
2019-05-18T02:41:27.400Z,72.10
2019-05-18T02:43:55.891Z,71.51
2019-05-18T02:46:24.379Z,71.28
2019-05-18T02:48:52.942Z,73.25
2019-05-18T02:51:21.475Z,74.36
2019-05-18T02:53:49.959Z,74.79
2019-05-18T02:56:18.465Z,76.15
2019-05-18T02:58:46.937Z,78.65
2019-05-18T03:01:15.447Z,79.71
2019-05-18T03:03:43.924Z,79.81
2019-05-18T03:06:12.435Z,79.70
2019-05-18T03:08:41.090Z,78.99
2019-05-18T03:11:09.661Z,76.74
2019-05-18T03:13:38.292Z,76.05
2019-05-18T03:16:06.772Z,74.08
2019-05-18T03:18:35.325Z,73.01
2019-05-18T03:21:03.875Z,72.45
2019-05-18T03:23:32.443Z,71.65
2019-05-18T03:26:00.916Z,71.38
2019-05-18T03:28:29.427Z,70.97
2019-05-18T03:30:57.935Z,70.67
2019-05-18T03:33:29.376Z,70.78
2019-05-18T03:35:56.634Z,70.77
2019-05-18T03:38:25.150Z,70.81
2019-05-18T03:40:53.629Z,70.49
2019-05-18T03:43:22.135Z,71.42
2019-05-18T03:45:50.609Z,71.14
2019-05-18T03:48:19.112Z,71.89
2019-05-18T03:50:47.584Z,71.40
2019-05-18T03:53:18.229Z,71.20
2019-05-18T03:55:46.279Z,70.00
2019-05-18T03:58:14.901Z,70.25
2019-05-18T04:00:44.314Z,70.22
2019-05-18T04:03:12.809Z,71.30
2019-05-18T04:05:41.279Z,71.06
2019-05-18T04:08:09.795Z,69.60
2019-05-18T04:10:38.322Z,71.00
2019-05-18T04:13:06.771Z,68.30
2019-05-18T04:15:35.273Z,66.31
2019-05-18T04:18:04.858Z,65.21
2019-05-18T04:20:33.366Z,63.84
2019-05-18T04:23:01.841Z,63.66
2019-05-18T04:25:30.345Z,62.27
2019-05-18T04:27:58.825Z,63.43
2019-05-18T04:30:27.314Z,66.92
2019-05-18T04:32:55.797Z,70.35
2019-05-18T04:35:24.297Z,69.19
2019-05-18T04:37:52.804Z,70.29
2019-05-18T04:40:21.425Z,68.66
2019-05-18T04:42:49.926Z,67.24
2019-05-18T04:45:18.472Z,67.74
2019-05-18T04:47:48.661Z,66.01
2019-05-18T04:50:17.220Z,64.77
2019-05-18T04:52:45.701Z,64.47
2019-05-18T04:55:14.285Z,64.72
2019-05-18T04:57:42.750Z,63.70
2019-05-18T05:00:12.005Z,63.26
2019-05-18T05:02:40.471Z,63.71
2019-05-18T05:05:09.113Z,62.35
2019-05-18T05:07:37.595Z,62.53
2019-05-18T05:10:07.321Z,65.21
2019-05-18T05:12:35.802Z,64.93
2019-05-18T05:15:05.783Z,65.21
2019-05-18T05:17:34.260Z,67.02
2019-05-18T05:20:03.237Z,63.84
2019-05-18T05:22:31.725Z,62.10
2019-05-18T05:25:00.237Z,66.27
2019-05-18T05:27:28.716Z,64.13
2019-05-18T05:29:57.271Z,62.98
2019-05-18T05:32:25.760Z,60.25
2019-05-18T05:34:54.220Z,60.02
2019-05-18T05:37:31.741Z,58.23
2019-05-18T05:40:00.289Z,58.49
2019-05-18T05:42:28.804Z,59.79
2019-05-18T05:44:57.318Z,61.43
2019-05-18T05:47:25.820Z,61.16
2019-05-18T05:49:54.306Z,59.76
2019-05-18T05:52:22.880Z,59.64
2019-05-18T05:54:51.357Z,60.75
2019-05-18T05:57:19.848Z,62.16
2019-05-18T05:59:48.370Z,62.16
2019-05-18T06:02:16.805Z,61.70
2019-05-18T06:04:45.286Z,61.61
2019-05-18T06:07:13.775Z,61.57
2019-05-18T06:09:42.249Z,60.74
2019-05-18T06:12:10.821Z,60.44
2019-05-18T06:14:39.302Z,59.98
2019-05-18T06:17:08.584Z,61.40
2019-05-18T06:19:37.187Z,58.59
2019-05-18T06:22:05.683Z,57.22
2019-05-18T06:24:34.162Z,57.16
2019-05-18T06:27:02.634Z,56.03
2019-05-18T06:29:31.139Z,56.78
2019-05-18T06:31:59.617Z,55.72
2019-05-18T06:34:28.108Z,56.63
2019-05-18T06:36:56.598Z,55.30
2019-05-18T06:39:25.065Z,54.15
2019-05-18T06:41:53.550Z,53.69
2019-05-18T06:44:22.043Z,55.76
2019-05-18T06:46:50.538Z,56.14
2019-05-18T06:49:19.014Z,53.42
2019-05-18T06:51:47.519Z,53.06
2019-05-18T06:54:16.060Z,51.91
2019-05-18T06:56:44.997Z,51.52
2019-05-18T06:59:16.439Z,50.50
2019-05-18T07:01:45.145Z,53.02
2019-05-18T07:04:13.619Z,53.14
2019-05-18T07:06:42.185Z,52.64
2019-05-18T07:09:14.320Z,52.84
2019-05-18T07:11:43.024Z,52.49
2019-05-18T07:14:24.983Z,51.00
2019-05-18T07:16:41.807Z,49.99
2019-05-18T07:19:10.466Z,47.59
2019-05-18T07:21:38.946Z,47.59
2019-05-18T07:24:07.452Z,47.52
2019-05-18T07:26:36.005Z,49.03
2019-05-18T07:29:05.790Z,46.97
2019-05-18T07:31:34.473Z,46.99
2019-05-18T07:34:02.967Z,47.42
2019-05-18T07:36:33.083Z,47.97
2019-05-18T07:39:01.600Z,49.67
2019-05-18T07:41:30.077Z,49.59
2019-05-18T07:43:58.580Z,48.18
2019-05-18T07:46:27.092Z,47.00
2019-05-18T07:48:55.557Z,47.50
2019-05-18T07:51:36.349Z,46.27
2019-05-18T07:53:54.309Z,47.13
2019-05-18T07:56:22.783Z,48.49
2019-05-18T07:58:51.295Z,48.82
2019-05-18T08:01:19.763Z,45.78
2019-05-18T08:03:48.267Z,44.79
2019-05-18T08:06:16.744Z,44.97
2019-05-18T08:08:45.257Z,44.70
2019-05-18T08:11:13.727Z,43.05
2019-05-18T08:13:42.217Z,45.61
2019-05-18T08:16:10.687Z,45.06
2019-05-18T08:18:39.219Z,43.23
2019-05-18T08:21:07.696Z,43.06
2019-05-18T08:23:36.186Z,42.12
2019-05-18T08:26:04.731Z,44.24
2019-05-18T08:28:33.238Z,44.40
2019-05-18T08:31:01.817Z,43.53
2019-05-18T08:33:30.369Z,43.52
2019-05-18T08:35:58.854Z,42.31
2019-05-18T08:38:27.336Z,43.39
2019-05-18T08:40:55.843Z,43.44
2019-05-18T08:43:24.326Z,43.38
2019-05-18T08:45:52.834Z,44.31
2019-05-18T08:48:21.341Z,44.04
2019-05-18T08:50:49.824Z,43.13
2019-05-18T08:53:18.321Z,42.61
2019-05-18T08:55:46.830Z,43.20
2019-05-18T08:58:15.312Z,44.59
2019-05-18T09:00:43.807Z,43.39
2019-05-18T09:03:12.325Z,43.40
2019-05-18T09:05:41.769Z,43.39
2019-05-18T09:08:10.247Z,44.25
2019-05-18T09:10:38.736Z,42.04
2019-05-18T09:13:07.210Z,41.39
2019-05-18T09:15:35.794Z,41.04
2019-05-18T09:18:05.215Z,41.26
2019-05-18T09:20:33.754Z,42.20
2019-05-18T09:23:02.274Z,41.75
2019-05-18T09:25:30.763Z,42.93
2019-05-18T09:27:59.241Z,41.51
2019-05-18T09:30:27.757Z,42.08
2019-05-18T09:32:56.235Z,41.67
2019-05-18T09:35:24.721Z,39.83
2019-05-18T09:37:54.753Z,40.85
2019-05-18T09:40:23.372Z,40.85
2019-05-18T09:42:51.862Z,38.98
2019-05-18T09:45:20.765Z,38.64
2019-05-18T09:47:49.339Z,36.94
2019-05-18T09:50:18.698Z,36.50
2019-05-18T09:52:47.174Z,38.46
2019-05-18T09:55:16.680Z,37.48
2019-05-18T09:57:45.168Z,38.03
2019-05-18T10:00:15.254Z,37.36
2019-05-18T10:02:43.809Z,37.53
2019-05-18T10:05:12.668Z,37.10
2019-05-18T10:07:41.102Z,36.67
2019-05-18T10:10:10.091Z,37.89
2019-05-18T10:12:38.801Z,35.57
2019-05-18T10:15:08.900Z,35.30
2019-05-18T10:17:37.458Z,35.21
2019-05-18T10:20:07.794Z,36.42
2019-05-18T10:22:36.291Z,39.42
2019-05-18T10:25:07.277Z,38.94
2019-05-18T10:27:35.718Z,39.31
2019-05-18T10:30:08.730Z,38.11
2019-05-18T10:32:37.302Z,37.94
2019-05-18T10:35:08.833Z,36.48
2019-05-18T10:37:37.812Z,35.28
2019-05-18T10:40:09.230Z,35.41
2019-05-18T10:42:37.693Z,36.29
2019-05-18T10:45:07.432Z,36.08
2019-05-18T10:47:35.945Z,38.59
2019-05-18T10:50:09.252Z,38.25
2019-05-18T10:52:37.814Z,38.24
2019-05-18T10:55:08.096Z,36.45
2019-05-18T10:57:36.678Z,38.20
2019-05-18T11:00:09.927Z,38.45
2019-05-18T11:02:38.383Z,36.71
2019-05-18T11:05:09.632Z,34.63
2019-05-18T11:07:38.187Z,33.28
2019-05-18T11:10:08.797Z,33.72
2019-05-18T11:12:37.332Z,34.88
2019-05-18T11:15:08.161Z,33.97
2019-05-18T11:17:36.618Z,34.28
2019-05-18T11:20:09.400Z,33.54
2019-05-18T11:22:38.379Z,33.29
2019-05-18T11:25:08.753Z,30.68
2019-05-18T11:27:37.373Z,32.84
2019-05-18T11:30:08.635Z,33.08
2019-05-18T11:32:37.814Z,35.06
2019-05-18T11:35:07.816Z,33.07
2019-05-18T11:37:36.357Z,34.74
2019-05-18T11:40:10.313Z,33.00
2019-05-18T11:42:43.183Z,32.33
2019-05-18T11:45:14.815Z,31.59
2019-05-18T11:47:42.833Z,32.77
2019-05-18T11:50:12.541Z,33.22
2019-05-18T11:52:41.120Z,30.45
2019-05-18T11:55:09.843Z,33.23
2019-05-18T11:57:38.336Z,34.67
2019-05-18T12:00:09.322Z,34.39
2019-05-18T12:02:37.888Z,35.67
2019-05-18T12:05:07.869Z,34.01
2019-05-18T12:07:36.415Z,34.44
2019-05-18T12:10:08.468Z,34.86
2019-05-18T12:12:37.027Z,30.97
2019-05-18T12:15:07.458Z,30.20
2019-05-18T12:17:35.970Z,31.50
2019-05-18T12:20:09.145Z,31.52
2019-05-18T12:22:37.753Z,32.25
2019-05-18T12:25:09.870Z,27.83
2019-05-18T12:27:38.436Z,28.58
2019-05-18T12:30:10.748Z,28.62
2019-05-18T12:32:39.258Z,28.42
2019-05-18T12:35:10.860Z,29.73
2019-05-18T12:37:39.364Z,28.30
2019-05-18T12:40:09.049Z,29.60
2019-05-18T12:42:37.847Z,30.69
2019-05-18T12:48:34.028Z,30.34
2019-05-18T12:51:02.532Z,28.85
2019-05-18T12:53:31.005Z,30.74
2019-05-18T12:55:59.480Z,30.63
2019-05-18T12:58:28.018Z,28.40
2019-05-18T13:00:56.572Z,26.14
2019-05-18T13:03:25.091Z,27.60
2019-05-18T13:05:53.590Z,29.44
2019-05-18T13:08:22.077Z,28.36
2019-05-18T13:10:50.625Z,30.59
2019-05-18T13:13:19.041Z,30.71
2019-05-18T13:15:47.615Z,30.05
2019-05-18T13:18:16.096Z,28.26
2019-05-18T13:20:46.333Z,28.96
2019-05-18T13:23:14.810Z,28.62
2019-05-18T13:25:43.310Z,28.37
2019-05-18T13:28:11.801Z,28.94
2019-05-18T13:30:40.371Z,26.89
2019-05-18T13:33:08.829Z,28.14
2019-05-18T13:35:37.821Z,28.51
2019-05-18T13:38:06.448Z,28.60
2019-05-18T13:40:34.922Z,29.61
2019-05-18T13:43:03.500Z,28.65
2019-05-18T13:45:32.099Z,28.68
2019-05-18T13:48:00.586Z,29.83
2019-05-18T13:50:29.159Z,28.97
2019-05-18T13:52:57.630Z,28.34
2019-05-18T13:55:26.689Z,30.55
2019-05-18T13:57:55.188Z,29.78
2019-05-18T14:00:23.749Z,31.87
2019-05-18T14:02:52.286Z,32.04
2019-05-18T14:05:21.238Z,34.74
2019-05-18T14:07:49.711Z,32.98
2019-05-18T14:10:18.513Z,31.09
2019-05-18T14:12:47.115Z,29.54
2019-05-18T14:15:15.705Z,28.30
2019-05-18T14:17:44.226Z,28.25
2019-05-18T14:20:13.134Z,28.17
2019-05-18T14:22:41.638Z,25.56
2019-05-18T14:25:19.457Z,25.56
2019-05-18T14:27:41.046Z,33.07
2019-05-18T14:30:11.540Z,33.07
2019-05-18T14:32:40.125Z,32.92
2019-05-18T14:35:09.034Z,29.48
2019-05-18T14:37:37.548Z,30.66
2019-05-18T14:40:08.273Z,28.60
2019-05-18T14:42:36.830Z,28.91
2019-05-18T14:45:08.520Z,29.79
2019-05-18T14:47:36.276Z,30.59
2019-05-18T14:50:06.230Z,30.34
2019-05-18T14:52:34.785Z,30.54
2019-05-18T14:55:03.670Z,29.86
2019-05-18T14:57:32.233Z,30.33
2019-05-18T15:00:02.397Z,30.11
2019-05-18T15:02:33.188Z,31.10
2019-05-18T15:05:02.263Z,29.45
2019-05-18T15:07:30.848Z,28.95
2019-05-18T15:09:59.459Z,28.15
2019-05-18T15:12:28.000Z,32.44
2019-05-18T15:14:56.476Z,29.69
2019-05-18T15:17:24.953Z,32.03
2019-05-18T15:19:53.496Z,33.41
2019-05-18T15:22:21.996Z,31.84
2019-05-18T15:24:50.483Z,33.75
2019-05-18T15:27:18.954Z,31.97
2019-05-18T15:29:47.460Z,31.90
2019-05-18T15:32:15.964Z,32.02
2019-05-18T15:34:44.431Z,35.22
2019-05-18T15:37:12.940Z,37.43
2019-05-18T15:39:41.400Z,43.71
2019-05-18T15:42:13.314Z,46.24
2019-05-18T15:44:41.792Z,46.62
2019-05-18T15:47:10.464Z,45.19
2019-05-18T15:49:38.980Z,53.15
2019-05-18T15:52:07.438Z,60.25
2019-05-18T15:54:36.361Z,63.88
2019-05-18T15:57:05.112Z,68.69
2019-05-18T15:59:34.392Z,68.50
2019-05-18T16:02:06.478Z,65.34
2019-05-18T16:04:33.962Z,68.56
2019-05-18T16:07:02.459Z,66.47
2019-05-18T16:09:30.951Z,68.36
2019-05-18T16:11:59.420Z,67.61
2019-05-18T16:14:27.920Z,68.72
2019-05-18T16:16:56.395Z,66.97
2019-05-18T16:19:24.975Z,68.13
2019-05-18T16:21:53.499Z,68.30
2019-05-18T16:24:22.061Z,69.15
2019-05-18T16:26:50.609Z,68.01
2019-05-18T16:29:19.156Z,67.90
2019-05-18T16:31:47.603Z,67.85
2019-05-18T16:34:16.093Z,71.12
2019-05-18T16:36:44.563Z,68.74
2019-05-18T16:39:13.121Z,66.40
2019-05-18T16:41:41.602Z,66.40
2019-05-18T16:44:10.111Z,66.22
2019-05-18T16:46:38.589Z,66.43
2019-05-18T16:49:07.153Z,70.49
2019-05-18T16:51:35.641Z,71.63
2019-05-18T16:54:04.889Z,68.92
2019-05-18T16:56:35.550Z,67.73
2019-05-18T16:59:04.736Z,71.27
2019-05-18T17:01:33.229Z,74.27
2019-05-18T17:04:01.797Z,71.52
2019-05-18T17:06:30.285Z,75.18
2019-05-18T17:08:58.844Z,74.91
2019-05-18T17:11:27.319Z,74.09
2019-05-18T17:13:55.800Z,73.32
2019-05-18T17:16:24.278Z,73.93
2019-05-18T17:18:52.778Z,73.34
2019-05-18T17:21:21.252Z,70.91
2019-05-18T17:23:49.773Z,71.42
2019-05-18T17:26:18.311Z,74.11
2019-05-18T17:28:46.796Z,71.98
2019-05-18T17:31:15.280Z,69.66
2019-05-18T17:33:43.759Z,70.63
2019-05-18T17:36:12.277Z,70.95
2019-05-18T17:38:40.781Z,68.10
2019-05-18T17:41:09.316Z,67.73
2019-05-18T17:43:37.896Z,70.49
2019-05-18T17:46:06.410Z,68.85
2019-05-18T17:48:34.937Z,69.02
2019-05-18T17:51:03.448Z,67.13
2019-05-18T17:53:31.958Z,67.88
2019-05-18T17:56:00.445Z,68.64
2019-05-18T17:58:28.925Z,68.24
2019-05-18T18:00:57.406Z,69.30
2019-05-18T18:03:25.914Z,68.35
2019-05-18T18:05:54.395Z,68.09
2019-05-18T18:08:22.905Z,69.81
2019-05-18T18:10:53.709Z,70.15
2019-05-18T18:13:22.296Z,71.27
2019-05-18T18:15:50.764Z,71.72
2019-05-18T18:18:19.271Z,72.65
2019-05-18T18:20:47.819Z,70.99
2019-05-18T18:23:16.325Z,68.86
2019-05-18T18:25:44.810Z,68.18
2019-05-18T18:28:13.656Z,68.97
2019-05-18T18:30:42.133Z,65.96
2019-05-18T18:33:10.708Z,67.70
2019-05-18T18:35:39.784Z,69.69
2019-05-18T18:38:08.441Z,69.47
2019-05-18T18:40:36.951Z,67.51
2019-05-18T18:43:05.421Z,67.31
2019-05-18T18:45:33.998Z,67.19
2019-05-18T18:48:02.560Z,67.57
2019-05-18T18:50:33.163Z,67.96
2019-05-18T18:53:01.635Z,69.41
2019-05-18T18:55:30.149Z,70.27
2019-05-18T18:57:58.633Z,69.41
2019-05-18T19:00:27.146Z,69.39
2019-05-18T19:02:55.623Z,70.53
2019-05-18T19:05:24.104Z,69.43
2019-05-18T19:07:52.594Z,69.72
2019-05-18T19:10:21.078Z,68.32
2019-05-18T19:12:49.605Z,67.31
2019-05-18T19:15:18.827Z,68.15
2019-05-18T19:17:47.348Z,67.62
2019-05-18T19:20:16.003Z,69.81
2019-05-18T19:22:44.517Z,68.45
2019-05-18T19:25:14.707Z,67.96
2019-05-18T19:27:54.074Z,68.35
2019-05-18T19:30:13.798Z,68.24
2019-05-18T19:32:42.300Z,69.91
2019-05-18T19:35:10.941Z,71.00
2019-05-18T19:37:39.415Z,69.42
2019-05-18T19:40:09.475Z,68.46
2019-05-18T19:42:38.088Z,71.29
2019-05-18T19:45:08.837Z,68.97
2019-05-18T19:47:37.338Z,68.69
2019-05-18T19:50:07.872Z,70.22
2019-05-18T19:52:36.363Z,70.64
2019-05-18T19:55:06.579Z,69.73
2019-05-18T19:57:35.067Z,69.58
2019-05-18T20:00:05.724Z,68.34
2019-05-18T20:02:34.246Z,68.82
2019-05-18T20:05:08.466Z,68.12
2019-05-18T20:07:36.019Z,68.31
2019-05-18T20:10:10.434Z,70.17
2019-05-18T20:12:38.940Z,71.82
2019-05-18T20:15:09.654Z,72.28
2019-05-18T20:17:38.228Z,71.49
2019-05-18T20:20:08.447Z,71.20
2019-05-18T20:22:36.922Z,69.34
2019-05-18T20:25:06.066Z,69.06
2019-05-18T20:27:34.649Z,67.98
2019-05-18T20:30:03.211Z,67.36
2019-05-18T20:32:31.679Z,67.92
2019-05-18T20:35:00.164Z,67.13
2019-05-18T20:37:28.678Z,67.63
2019-05-18T20:39:57.137Z,67.87
2019-05-18T20:42:25.654Z,68.38
2019-05-18T20:44:54.162Z,68.06
2019-05-18T20:47:22.690Z,67.69
2019-05-18T20:49:51.172Z,67.27
2019-05-18T20:52:19.666Z,67.71
2019-05-18T20:54:48.156Z,68.40
2019-05-18T20:57:16.648Z,68.45
2019-05-18T20:59:45.131Z,69.18
2019-05-18T21:02:16.004Z,68.30
2019-05-18T21:04:44.484Z,68.11
2019-05-18T21:07:16.025Z,67.96
2019-05-18T21:09:44.533Z,68.02
2019-05-18T21:12:16.234Z,67.73
2019-05-18T21:14:44.709Z,69.30
2019-05-18T21:17:13.226Z,70.15
2019-05-18T21:19:41.711Z,71.13
2019-05-18T21:22:10.198Z,70.79
2019-05-18T21:24:38.697Z,70.32
2019-05-18T21:27:07.173Z,69.18
2019-05-18T21:29:35.663Z,70.27
2019-05-18T21:32:04.726Z,69.75
2019-05-18T21:34:33.252Z,69.42
2019-05-18T21:37:01.734Z,69.25
2019-05-18T21:39:30.225Z,68.87
2019-05-18T21:41:58.740Z,68.60
2019-05-18T21:44:27.264Z,68.04
2019-05-18T21:46:55.751Z,69.98
2019-05-18T21:49:24.246Z,73.95
2019-05-18T21:51:52.734Z,73.91
2019-05-18T21:54:21.291Z,72.30
2019-05-18T21:56:49.808Z,73.99
2019-05-18T21:59:18.294Z,71.60
2019-05-18T22:01:46.778Z,70.23
2019-05-18T22:04:15.420Z,70.06
2019-05-18T22:06:43.963Z,69.00
2019-05-18T22:09:12.445Z,70.84
2019-05-18T22:11:40.958Z,73.53
2019-05-18T22:14:09.438Z,71.02
2019-05-18T22:16:37.960Z,70.69
2019-05-18T22:19:06.451Z,70.09
2019-05-18T22:21:34.976Z,69.17
2019-05-18T22:24:03.532Z,69.03
2019-05-18T22:26:32.042Z,69.05
2019-05-18T22:29:00.521Z,69.46
2019-05-18T22:31:29.077Z,69.83
2019-05-18T22:33:57.599Z,69.30
2019-05-18T22:36:26.079Z,69.02
2019-05-18T22:38:54.593Z,69.20
2019-05-18T22:41:23.086Z,69.32
2019-05-18T22:43:51.665Z,71.50
2019-05-18T22:46:20.263Z,71.40
2019-05-18T22:48:48.747Z,70.23
2019-05-18T22:51:17.251Z,70.14
2019-05-18T22:53:46.649Z,70.53
2019-05-18T22:56:15.249Z,71.08
2019-05-18T22:58:43.762Z,71.71
2019-05-18T23:01:12.249Z,70.63
2019-05-18T23:03:40.802Z,70.48
2019-05-18T23:06:09.329Z,69.38
2019-05-18T23:08:37.875Z,68.75
2019-05-18T23:11:06.349Z,68.39
2019-05-18T23:13:34.861Z,67.90
2019-05-18T23:16:03.335Z,68.36
2019-05-18T23:18:31.839Z,72.67
2019-05-18T23:21:00.351Z,75.34
2019-05-18T23:23:28.839Z,76.00
2019-05-18T23:25:57.395Z,74.48
2019-05-18T23:28:25.875Z,72.46
2019-05-18T23:30:54.377Z,74.17
2019-05-18T23:33:22.856Z,76.41
2019-05-18T23:35:51.377Z,76.15
2019-05-18T23:38:19.860Z,73.29
2019-05-18T23:40:48.437Z,71.98
2019-05-18T23:43:16.972Z,71.50
2019-05-18T23:45:45.424Z,70.94
2019-05-18T23:48:13.938Z,70.46
2019-05-18T23:50:42.402Z,69.86
2019-05-18T23:53:10.897Z,69.34
2019-05-18T23:55:39.412Z,69.34
2019-05-18T23:58:07.900Z,69.61
